createdAt,value
2019-03-10T13:08:18.380Z,67.71
2019-03-10T13:09:18.369Z,67.92
2019-03-10T13:10:18.373Z,68.23
2019-03-10T13:11:18.330Z,68.67
2019-03-10T13:12:18.374Z,67.41
2019-03-10T13:13:18.299Z,66.28
2019-03-10T13:14:18.303Z,67.30
2019-03-10T13:15:18.297Z,68.02
2019-03-10T13:16:18.275Z,67.33
2019-03-10T13:17:18.269Z,67.13
2019-03-10T13:18:18.272Z,68.16
2019-03-10T13:19:18.314Z,68.19
2019-03-10T13:20:27.768Z,67.98
2019-03-10T13:21:19.208Z,68.91
2019-03-10T13:22:18.231Z,68.80
2019-03-10T13:23:18.177Z,69.66
2019-03-10T13:24:18.167Z,68.70
2019-03-10T13:25:18.176Z,68.94
2019-03-10T13:26:18.162Z,70.07
2019-03-10T13:27:18.186Z,69.76
2019-03-10T13:28:18.128Z,70.00
2019-03-10T13:29:18.109Z,70.52
2019-03-10T13:30:18.112Z,71.14
2019-03-10T13:31:18.186Z,70.72
2019-03-10T13:32:18.091Z,70.93
2019-03-10T13:33:18.069Z,71.34
2019-03-10T13:34:18.084Z,70.72
2019-03-10T13:35:18.087Z,71.65
2019-03-10T13:36:18.041Z,71.96
2019-03-10T13:37:18.018Z,72.16
2019-03-10T13:38:18.021Z,72.58
2019-03-10T13:39:18.051Z,73.09
2019-03-10T13:40:17.992Z,72.47
2019-03-10T13:41:17.972Z,72.61
2019-03-10T13:42:17.962Z,72.71
2019-03-10T13:43:17.957Z,73.74
2019-03-10T13:44:17.938Z,74.36
2019-03-10T13:45:17.951Z,75.08
2019-03-10T13:46:17.949Z,75.18
2019-03-10T13:47:17.984Z,75.70
2019-03-10T13:48:17.990Z,76.01
2019-03-10T13:49:17.921Z,76.32
2019-03-10T13:50:17.881Z,76.53
2019-03-10T13:51:17.861Z,75.90
2019-03-10T13:52:17.857Z,75.39
2019-03-10T13:53:17.837Z,74.80
2019-03-10T13:54:17.825Z,75.18
2019-03-10T13:55:17.830Z,76.11
2019-03-10T13:56:17.808Z,77.14
2019-03-10T13:57:17.812Z,77.55
2019-03-10T13:58:17.802Z,78.14
2019-03-10T13:59:17.778Z,78.28
2019-03-10T14:00:17.850Z,77.35
2019-03-10T14:01:17.764Z,77.93
2019-03-10T14:02:17.938Z,77.42
2019-03-10T14:03:17.733Z,77.00
2019-03-10T14:04:17.720Z,77.62
2019-03-10T14:05:17.954Z,77.62
2019-03-10T14:06:17.705Z,77.51
2019-03-10T14:07:17.693Z,76.28
2019-03-10T14:08:17.664Z,77.00
2019-03-10T14:09:17.693Z,77.72
2019-03-10T14:10:17.659Z,77.83
2019-03-10T14:11:17.642Z,77.93
2019-03-10T14:12:17.640Z,77.31
2019-03-10T14:13:17.611Z,76.56
2019-03-10T14:14:17.597Z,76.28
2019-03-10T14:15:17.609Z,76.66
2019-03-10T14:16:17.581Z,76.86
2019-03-10T14:17:17.571Z,77.17
2019-03-10T14:18:17.578Z,77.07
2019-03-10T14:19:17.542Z,75.94
2019-03-10T14:20:27.455Z,76.56
2019-03-10T14:21:17.522Z,76.35
2019-03-10T14:22:17.532Z,76.97
2019-03-10T14:23:17.498Z,77.79
2019-03-10T14:24:17.491Z,77.48
2019-03-10T14:25:17.479Z,77.89
2019-03-10T14:26:17.461Z,75.73
2019-03-10T14:27:17.454Z,76.25
2019-03-10T14:28:17.448Z,75.29
2019-03-10T14:29:17.433Z,75.39
2019-03-10T14:30:17.438Z,75.73
2019-03-10T14:31:17.474Z,75.52
2019-03-10T14:32:17.395Z,75.63
2019-03-10T14:33:17.381Z,76.04
2019-03-10T14:34:17.402Z,76.73
2019-03-10T14:35:17.386Z,76.62
2019-03-10T14:36:17.391Z,76.73
2019-03-10T14:37:17.366Z,76.62
2019-03-10T14:38:17.512Z,77.14
2019-03-10T14:39:17.326Z,76.62
2019-03-10T14:40:17.384Z,77.07
2019-03-10T14:41:17.292Z,76.93
2019-03-10T14:42:17.299Z,78.41
2019-03-10T14:43:18.780Z,75.29
2019-03-10T14:44:17.385Z,76.45
2019-03-10T14:45:17.270Z,78.00
2019-03-10T14:46:17.247Z,77.86
2019-03-10T14:47:19.353Z,78.41
2019-03-10T14:48:17.217Z,77.65
2019-03-10T14:49:23.338Z,78.00
2019-03-10T14:50:18.189Z,78.06
2019-03-10T14:51:17.207Z,78.27
2019-03-10T14:52:17.187Z,78.41
2019-03-10T14:53:17.166Z,79.33
2019-03-10T14:54:17.192Z,78.30
2019-03-10T14:55:17.131Z,78.61
2019-03-10T14:56:17.128Z,78.34
2019-03-10T14:57:17.111Z,79.37
2019-03-10T14:58:17.151Z,79.06
2019-03-10T14:59:17.126Z,77.31
2019-03-10T15:00:17.075Z,77.62
2019-03-10T15:01:17.222Z,77.11
2019-03-10T15:02:17.059Z,78.17
2019-03-10T15:03:18.146Z,78.86
2019-03-10T15:04:17.033Z,78.79
2019-03-10T15:05:17.014Z,78.38
2019-03-10T15:06:17.007Z,79.51
2019-03-10T15:07:17.010Z,79.68
2019-03-10T15:08:17.106Z,79.47
2019-03-10T15:09:16.996Z,79.10
2019-03-10T15:10:16.967Z,79.72
2019-03-10T15:11:16.951Z,79.30
2019-03-10T15:12:16.934Z,80.13
2019-03-10T15:13:16.938Z,79.41
2019-03-10T15:14:16.968Z,79.47
2019-03-10T15:15:22.124Z,79.93
2019-03-10T15:16:17.896Z,79.47
2019-03-10T15:17:16.877Z,79.41
2019-03-10T15:18:16.908Z,79.30
2019-03-10T15:19:16.921Z,79.10
2019-03-10T15:20:17.014Z,80.02
2019-03-10T15:21:16.835Z,79.41
2019-03-10T15:22:16.850Z,79.68
2019-03-10T15:23:16.809Z,79.61
2019-03-10T15:24:16.844Z,80.13
2019-03-10T15:25:16.799Z,79.41
2019-03-10T15:26:16.788Z,79.72
2019-03-10T15:27:23.214Z,79.99
2019-03-10T15:28:17.758Z,79.41
2019-03-10T15:29:16.781Z,79.68
2019-03-10T15:30:16.752Z,79.10
2019-03-10T15:31:16.755Z,79.00
2019-03-10T15:32:16.716Z,78.44
2019-03-10T15:33:16.738Z,78.28
2019-03-10T15:34:16.696Z,77.14
2019-03-10T15:35:16.688Z,77.51
2019-03-10T15:36:20.621Z,77.76
2019-03-10T15:37:16.669Z,77.55
2019-03-10T15:38:16.641Z,78.79
2019-03-10T15:39:16.648Z,78.28
2019-03-10T15:40:16.619Z,78.17
2019-03-10T15:41:16.611Z,77.66
2019-03-10T15:42:16.630Z,77.14
2019-03-10T15:43:16.631Z,77.86
2019-03-10T15:44:16.666Z,78.38
2019-03-10T15:45:16.566Z,78.17
2019-03-10T15:46:16.555Z,78.48
2019-03-10T15:47:16.553Z,77.97
2019-03-10T15:48:16.545Z,78.48
2019-03-10T15:49:16.533Z,78.89
2019-03-10T15:50:16.504Z,79.20
2019-03-10T15:51:16.487Z,79.20
2019-03-10T15:52:16.487Z,79.72
2019-03-10T15:53:16.497Z,78.69
2019-03-10T15:54:16.510Z,79.51
2019-03-10T15:55:16.444Z,79.82
2019-03-10T15:56:16.451Z,79.93
2019-03-10T15:57:16.465Z,79.72
2019-03-10T15:58:16.460Z,78.17
2019-03-10T15:59:18.458Z,78.52
2019-03-10T16:00:16.387Z,79.24
2019-03-10T16:01:16.373Z,80.13
2019-03-10T16:02:16.365Z,80.58
2019-03-10T16:03:16.365Z,80.47
2019-03-10T16:04:16.657Z,80.27
2019-03-10T16:05:16.329Z,80.47
2019-03-10T16:06:16.316Z,80.89
2019-03-10T16:07:16.319Z,80.47
2019-03-10T16:08:16.321Z,80.89
2019-03-10T16:09:16.318Z,79.44
2019-03-10T16:10:16.300Z,80.10
2019-03-10T16:11:16.261Z,80.41
2019-03-10T16:12:16.256Z,79.48
2019-03-10T16:13:16.267Z,79.96
2019-03-10T16:14:16.325Z,80.41
2019-03-10T16:15:16.266Z,80.93
2019-03-10T16:16:16.282Z,80.51
2019-03-10T16:17:16.201Z,80.62
2019-03-10T16:18:16.181Z,81.13
2019-03-10T16:19:16.171Z,81.13
2019-03-10T16:20:16.176Z,81.23
2019-03-10T16:21:16.155Z,80.82
2019-03-10T16:22:16.136Z,80.04
2019-03-10T16:23:16.128Z,81.23
2019-03-10T16:24:16.136Z,80.51
2019-03-10T16:25:16.106Z,80.24
2019-03-10T16:26:16.346Z,79.93
2019-03-10T16:27:16.108Z,79.72
2019-03-10T16:28:16.072Z,80.44
2019-03-10T16:29:16.175Z,81.27
2019-03-10T16:30:16.054Z,81.79
2019-03-10T16:31:16.046Z,82.30
2019-03-10T16:32:16.059Z,82.82
2019-03-10T16:33:16.019Z,83.13
2019-03-10T16:34:15.998Z,83.54
2019-03-10T16:35:15.994Z,83.54
2019-03-10T16:36:15.984Z,84.27
2019-03-10T16:37:15.992Z,84.47
2019-03-10T16:38:15.997Z,84.47
2019-03-10T16:39:15.946Z,84.47
2019-03-10T16:40:15.929Z,84.36
2019-03-10T16:41:15.927Z,83.33
2019-03-10T16:42:15.912Z,83.64
2019-03-10T16:43:15.917Z,83.64
2019-03-10T16:44:15.902Z,83.33
2019-03-10T16:45:15.868Z,83.89
2019-03-10T16:46:15.882Z,83.68
2019-03-10T16:47:15.858Z,84.09
2019-03-10T16:48:15.851Z,84.61
2019-03-10T16:49:15.833Z,84.61
2019-03-10T16:50:15.810Z,84.61
2019-03-10T16:51:15.802Z,84.20
2019-03-10T16:52:15.946Z,84.61
2019-03-10T16:53:15.783Z,84.03
2019-03-10T16:54:15.782Z,84.65
2019-03-10T16:55:15.804Z,84.44
2019-03-10T16:56:15.740Z,83.93
2019-03-10T16:57:15.733Z,84.55
2019-03-10T16:58:15.738Z,84.23
2019-03-10T16:59:15.738Z,84.44
2019-03-10T17:00:15.708Z,83.62
2019-03-10T17:01:15.683Z,83.62
2019-03-10T17:02:15.691Z,84.65
2019-03-10T17:03:15.675Z,84.69
2019-03-10T17:04:15.665Z,83.72
2019-03-10T17:05:16.055Z,84.03
2019-03-10T17:06:15.695Z,83.55
2019-03-10T17:07:15.613Z,83.83
2019-03-10T17:08:15.616Z,84.55
2019-03-10T17:09:15.596Z,84.38
2019-03-10T17:10:15.586Z,85.10
2019-03-10T17:11:15.596Z,85.10
2019-03-10T17:12:15.568Z,85.27
2019-03-10T17:13:15.553Z,86.03
2019-03-10T17:14:15.559Z,86.65
2019-03-10T17:15:15.552Z,85.58
2019-03-10T17:16:16.441Z,84.79
2019-03-10T17:17:15.499Z,83.55
2019-03-10T17:18:15.498Z,83.76
2019-03-10T17:19:15.474Z,81.59
2019-03-10T17:20:15.461Z,82.83
2019-03-10T17:21:15.465Z,83.90
2019-03-10T17:22:15.460Z,83.65
2019-03-10T17:23:15.438Z,84.59
2019-03-10T17:24:15.416Z,84.38
2019-03-10T17:25:15.420Z,85.04
2019-03-10T17:26:15.545Z,84.79
2019-03-10T17:27:15.412Z,86.07
2019-03-10T17:28:15.447Z,84.83
2019-03-10T17:29:15.359Z,83.90
2019-03-10T17:30:15.344Z,83.39
2019-03-10T17:31:15.334Z,84.52
2019-03-10T17:32:15.325Z,84.83
2019-03-10T17:33:15.334Z,83.70
2019-03-10T17:34:15.300Z,83.32
2019-03-10T17:35:15.291Z,82.70
2019-03-10T17:36:15.290Z,81.87
2019-03-10T17:37:15.287Z,82.90
2019-03-10T17:38:15.281Z,83.32
2019-03-10T17:39:15.241Z,83.32
2019-03-10T17:40:15.252Z,83.94
2019-03-10T17:41:15.237Z,84.77
2019-03-10T17:42:15.251Z,84.66
2019-03-10T17:43:15.249Z,83.73
2019-03-10T17:44:15.234Z,83.84
2019-03-10T17:45:15.182Z,83.84
2019-03-10T17:46:15.178Z,84.56
2019-03-10T17:47:15.154Z,83.84
2019-03-10T17:48:15.162Z,84.87
2019-03-10T17:49:15.945Z,84.19
2019-03-10T17:50:15.142Z,85.18
2019-03-10T17:51:15.153Z,85.74
2019-03-10T17:52:15.097Z,85.32
2019-03-10T17:53:15.095Z,85.32
2019-03-10T17:54:15.090Z,85.02
2019-03-10T17:55:15.098Z,85.11
2019-03-10T17:56:15.090Z,85.94
2019-03-10T17:57:15.460Z,86.77
2019-03-10T17:58:15.027Z,86.57
2019-03-10T17:59:15.022Z,85.74
2019-03-10T18:00:15.026Z,86.15
2019-03-10T18:01:15.021Z,86.98
2019-03-10T18:02:15.008Z,87.39
2019-03-10T18:03:14.976Z,88.26
2019-03-10T18:04:14.962Z,88.53
2019-03-10T18:05:14.968Z,87.85
2019-03-10T18:06:15.187Z,87.08
2019-03-10T18:07:14.958Z,88.43
2019-03-10T18:08:15.022Z,87.43
2019-03-10T18:09:14.908Z,88.67
2019-03-10T18:10:15.685Z,88.67
2019-03-10T18:11:14.951Z,87.88
2019-03-10T18:12:14.943Z,89.23
2019-03-10T18:13:14.862Z,89.96
2019-03-10T18:14:14.906Z,89.89
2019-03-10T18:15:14.939Z,88.92
2019-03-10T18:16:14.944Z,88.55
2019-03-10T18:17:15.184Z,88.24
2019-03-10T18:18:14.981Z,89.89
2019-03-10T18:19:18.763Z,89.83
2019-03-10T18:20:15.148Z,90.31
2019-03-10T18:21:14.779Z,90.35
2019-03-10T18:22:14.911Z,89.11
2019-03-10T18:23:14.942Z,89.94
2019-03-10T18:24:21.673Z,91.95
2019-03-10T18:25:14.775Z,93.25
2019-03-10T18:26:14.781Z,93.46
2019-03-10T18:27:21.819Z,92.05
2019-03-10T18:28:15.298Z,92.78
2019-03-10T18:29:14.872Z,92.26
2019-03-10T18:30:14.703Z,90.64
2019-03-10T18:31:15.613Z,91.27
2019-03-10T18:32:15.672Z,91.37
2019-03-10T18:33:14.689Z,91.10
2019-03-10T18:34:14.714Z,91.00
2019-03-10T18:35:14.768Z,93.38
2019-03-10T18:36:14.676Z,92.24
2019-03-10T18:37:14.618Z,92.97
2019-03-10T18:38:14.607Z,92.97
2019-03-10T18:39:14.716Z,92.49
2019-03-10T18:40:16.360Z,92.28
2019-03-10T18:41:14.612Z,92.49
2019-03-10T18:42:17.770Z,91.60
2019-03-10T18:43:15.376Z,92.53
2019-03-10T18:44:19.196Z,90.35
2019-03-10T18:45:19.079Z,90.91
2019-03-10T18:46:19.832Z,92.05
2019-03-10T18:47:21.641Z,92.26
2019-03-10T18:48:16.521Z,92.05
2019-03-10T18:49:20.518Z,92.36
2019-03-10T18:50:15.739Z,93.24
2019-03-10T18:51:16.775Z,92.88
2019-03-10T18:52:20.608Z,93.30
2019-03-10T18:53:14.485Z,94.28
2019-03-10T18:54:14.433Z,93.45
2019-03-10T18:55:18.065Z,94.18
2019-03-10T18:56:29.336Z,93.66
2019-03-10T18:57:14.506Z,92.93
2019-03-10T18:58:14.579Z,94.22
2019-03-10T18:59:14.958Z,94.49
2019-03-10T19:00:14.585Z,94.18
2019-03-10T19:01:15.114Z,94.12
2019-03-10T19:02:14.633Z,94.01
2019-03-10T19:03:14.332Z,95.15
2019-03-10T19:04:14.348Z,94.84
2019-03-10T19:05:14.325Z,95.57
2019-03-10T19:06:14.394Z,96.20
2019-03-10T19:07:14.328Z,96.20
2019-03-10T19:08:21.201Z,96.51
2019-03-10T19:09:18.030Z,96.55
2019-03-10T19:10:14.240Z,95.47
2019-03-10T19:11:14.360Z,96.14
2019-03-10T19:12:14.717Z,96.09
2019-03-10T19:13:14.961Z,95.51
2019-03-10T19:14:14.213Z,95.62
2019-03-10T19:15:14.263Z,95.40
2019-03-10T19:16:15.268Z,95.51
2019-03-10T19:17:14.152Z,95.72
2019-03-10T19:18:15.088Z,94.37
2019-03-10T19:19:14.155Z,95.51
2019-03-10T19:20:14.704Z,95.56
2019-03-10T19:21:14.130Z,95.97
2019-03-10T19:22:14.127Z,96.39
2019-03-10T19:23:14.172Z,96.70
2019-03-10T19:24:14.206Z,95.76
2019-03-10T19:25:14.075Z,95.87
2019-03-10T19:26:14.087Z,95.87
2019-03-10T19:27:14.031Z,95.56
2019-03-10T19:28:14.079Z,96.70
2019-03-10T19:29:14.085Z,96.91
2019-03-10T19:30:14.113Z,96.80
2019-03-10T19:31:14.329Z,96.59
2019-03-10T19:32:14.385Z,96.70
2019-03-10T19:33:15.683Z,96.75
2019-03-10T19:34:14.959Z,97.27
2019-03-10T19:35:14.028Z,96.80
2019-03-10T19:36:14.451Z,96.49
2019-03-10T19:37:14.120Z,96.43
2019-03-10T19:38:18.592Z,96.75
2019-03-10T19:39:14.602Z,96.95
2019-03-10T19:40:16.478Z,96.22
2019-03-10T19:41:14.064Z,96.95
2019-03-10T19:42:15.640Z,97.16
2019-03-10T19:43:14.031Z,97.06
2019-03-10T19:44:14.341Z,95.91
2019-03-10T19:45:16.753Z,96.48
2019-03-10T19:46:14.217Z,96.53
2019-03-10T19:47:14.468Z,95.81
2019-03-10T19:48:13.979Z,95.75
2019-03-10T19:49:13.865Z,95.95
2019-03-10T19:50:13.774Z,95.58
2019-03-10T19:51:13.783Z,96.42
2019-03-10T19:52:13.749Z,96.83
2019-03-10T19:53:13.749Z,96.79
2019-03-10T19:54:13.944Z,96.73
2019-03-10T19:55:17.127Z,96.83
2019-03-10T19:56:13.736Z,97.14
2019-03-10T19:57:14.090Z,97.25
2019-03-10T19:58:13.701Z,97.46
2019-03-10T19:59:13.688Z,97.98
2019-03-10T20:00:17.217Z,97.10
2019-03-10T20:01:14.757Z,97.25
2019-03-10T20:02:18.612Z,96.94
2019-03-10T20:03:14.042Z,97.25
2019-03-10T20:04:13.657Z,97.31
2019-03-10T20:05:13.901Z,96.94
2019-03-10T20:06:13.641Z,96.94
2019-03-10T20:07:13.602Z,96.94
2019-03-10T20:08:13.584Z,96.73
2019-03-10T20:09:13.613Z,96.46
2019-03-10T20:10:13.963Z,96.00
2019-03-10T20:11:13.562Z,95.89
2019-03-10T20:12:13.566Z,96.46
2019-03-10T20:13:13.534Z,95.83
2019-03-10T20:14:13.649Z,95.94
2019-03-10T20:15:14.574Z,96.15
2019-03-10T20:16:13.668Z,95.94
2019-03-10T20:17:14.694Z,95.67
2019-03-10T20:18:13.473Z,96.50
2019-03-10T20:19:13.450Z,96.09
2019-03-10T20:20:13.428Z,95.98
2019-03-10T20:21:13.420Z,97.03
2019-03-10T20:22:13.433Z,97.03
2019-03-10T20:23:13.437Z,97.03
2019-03-10T20:24:13.431Z,97.34
2019-03-10T20:25:13.577Z,97.24
2019-03-10T20:26:13.487Z,97.34
2019-03-10T20:27:13.717Z,98.59
2019-03-10T20:28:21.698Z,98.28
2019-03-10T20:29:13.331Z,98.18
2019-03-10T20:30:13.327Z,98.59
2019-03-10T20:31:13.326Z,98.28
2019-03-10T20:32:14.340Z,97.86
2019-03-10T20:33:14.941Z,97.44
2019-03-10T20:34:13.360Z,97.86
2019-03-10T20:35:19.942Z,97.86
2019-03-10T20:36:13.375Z,98.07
2019-03-10T20:37:13.402Z,97.86
2019-03-10T20:38:13.290Z,98.07
2019-03-10T20:39:13.263Z,97.34
2019-03-10T20:40:13.669Z,98.59
2019-03-10T20:41:13.358Z,98.28
2019-03-10T20:42:13.248Z,98.18
2019-03-10T20:43:13.343Z,97.75
2019-03-10T20:44:13.877Z,97.75
2019-03-10T20:45:13.147Z,98.49
2019-03-10T20:46:13.231Z,97.97
2019-03-10T20:47:13.136Z,97.86
2019-03-10T20:48:13.113Z,98.49
2019-03-10T20:49:13.155Z,97.44
2019-03-10T20:50:13.118Z,97.19
2019-03-10T20:51:13.069Z,97.50
2019-03-10T20:52:13.058Z,98.02
2019-03-10T20:53:13.068Z,98.28
2019-03-10T20:54:13.078Z,98.75
2019-03-10T20:55:14.018Z,98.69
2019-03-10T20:56:13.222Z,98.02
2019-03-10T20:57:13.100Z,98.13
2019-03-10T20:58:15.131Z,98.44
2019-03-10T20:59:16.936Z,99.48
2019-03-10T21:00:12.979Z,99.02
2019-03-10T21:01:13.064Z,98.50
2019-03-10T21:02:12.963Z,98.60
2019-03-10T21:03:14.301Z,98.50
2019-03-10T21:04:13.011Z,98.50
2019-03-10T21:05:12.927Z,97.56
2019-03-10T21:06:12.978Z,97.25
2019-03-10T21:07:12.997Z,97.25
2019-03-10T21:08:14.898Z,97.81
2019-03-10T21:09:12.983Z,97.88
2019-03-10T21:10:12.890Z,97.98
2019-03-10T21:11:12.856Z,98.02
2019-03-10T21:12:13.795Z,97.25
2019-03-10T21:13:20.490Z,97.50
2019-03-10T21:14:13.909Z,97.46
2019-03-10T21:15:12.961Z,98.55
2019-03-10T21:16:13.103Z,98.44
2019-03-10T21:17:13.743Z,97.35
2019-03-10T21:18:12.802Z,97.88
2019-03-10T21:19:12.838Z,98.13
2019-03-10T21:20:12.740Z,97.92
2019-03-10T21:21:13.587Z,97.77
2019-03-10T21:22:12.713Z,97.88
2019-03-10T21:23:12.696Z,98.08
2019-03-10T21:24:12.693Z,98.39
2019-03-10T21:25:12.673Z,98.29
2019-03-10T21:26:14.861Z,98.04
2019-03-10T21:27:13.973Z,98.14
2019-03-10T21:28:13.567Z,98.29
2019-03-10T21:29:12.679Z,97.67
2019-03-10T21:30:12.622Z,98.29
2019-03-10T21:31:12.608Z,97.98
2019-03-10T21:32:12.604Z,98.35
2019-03-10T21:33:12.694Z,97.98
2019-03-10T21:34:13.449Z,98.35
2019-03-10T21:35:17.667Z,98.04
2019-03-10T21:36:13.547Z,98.14
2019-03-10T21:37:12.543Z,98.66
2019-03-10T21:38:12.548Z,98.56
2019-03-10T21:39:12.530Z,98.04
2019-03-10T21:40:12.506Z,98.41
2019-03-10T21:41:14.343Z,98.31
2019-03-10T21:42:12.481Z,98.04
2019-03-10T21:43:12.487Z,99.04
2019-03-10T21:44:12.456Z,98.93
2019-03-10T21:45:12.464Z,98.99
2019-03-10T21:46:12.437Z,98.31
2019-03-10T21:47:12.435Z,97.89
2019-03-10T21:48:12.499Z,96.85
2019-03-10T21:49:12.411Z,98.62
2019-03-10T21:50:12.399Z,97.99
2019-03-10T21:51:12.401Z,97.58
2019-03-10T21:52:12.369Z,97.06
2019-03-10T21:53:12.368Z,96.85
2019-03-10T21:54:12.360Z,97.27
2019-03-10T21:55:12.357Z,97.85
2019-03-10T21:56:12.334Z,97.37
2019-03-10T21:57:12.311Z,96.80
2019-03-10T21:58:12.297Z,97.33
2019-03-10T21:59:12.369Z,97.64
2019-03-10T22:00:12.303Z,98.26
2019-03-10T22:01:12.280Z,97.22
2019-03-10T22:02:12.284Z,98.16
2019-03-10T22:03:12.344Z,97.12
2019-03-10T22:04:12.444Z,97.38
2019-03-10T22:05:12.222Z,96.49
2019-03-10T22:06:12.245Z,96.91
2019-03-10T22:07:12.209Z,96.80
2019-03-10T22:08:12.236Z,97.28
2019-03-10T22:09:12.236Z,96.66
2019-03-10T22:10:12.167Z,97.59
2019-03-10T22:11:12.152Z,97.17
2019-03-10T22:12:12.139Z,96.76
2019-03-10T22:13:12.143Z,97.17
2019-03-10T22:14:12.132Z,96.45
2019-03-10T22:15:12.107Z,96.76
2019-03-10T22:16:12.196Z,96.45
2019-03-10T22:17:12.097Z,96.70
2019-03-10T22:18:12.122Z,96.66
2019-03-10T22:19:22.170Z,96.97
2019-03-10T22:20:13.058Z,97.07
2019-03-10T22:21:12.049Z,96.24
2019-03-10T22:22:12.033Z,95.62
2019-03-10T22:23:12.140Z,96.76
2019-03-10T22:24:12.017Z,96.55
2019-03-10T22:25:13.182Z,96.55
2019-03-10T22:26:11.983Z,96.45
2019-03-10T22:27:11.971Z,96.97
2019-03-10T22:28:11.968Z,96.76
2019-03-10T22:29:11.954Z,95.93
2019-03-10T22:30:11.965Z,95.51
2019-03-10T22:31:11.987Z,95.83
2019-03-10T22:32:11.960Z,95.62
2019-03-10T22:33:11.910Z,95.30
2019-03-10T22:34:12.018Z,95.72
2019-03-10T22:35:11.923Z,96.34
2019-03-10T22:36:11.965Z,95.30
2019-03-10T22:37:11.867Z,95.62
2019-03-10T22:38:11.847Z,96.45
2019-03-10T22:39:11.857Z,95.62
2019-03-10T22:40:11.825Z,95.40
2019-03-10T22:41:11.835Z,96.34
2019-03-10T22:42:11.811Z,95.40
2019-03-10T22:43:11.789Z,95.40
2019-03-10T22:44:11.868Z,96.97
2019-03-10T22:45:11.773Z,95.62
2019-03-10T22:46:11.763Z,95.89
2019-03-10T22:47:11.755Z,96.51
2019-03-10T22:48:11.744Z,96.72
2019-03-10T22:49:12.652Z,96.66
2019-03-10T22:50:11.803Z,96.66
2019-03-10T22:51:11.808Z,95.78
2019-03-10T22:52:11.694Z,95.47
2019-03-10T22:53:11.706Z,95.36
2019-03-10T22:54:11.669Z,97.13
2019-03-10T22:55:11.734Z,96.41
2019-03-10T22:56:11.642Z,97.96
2019-03-10T22:57:11.641Z,96.78
2019-03-10T22:58:11.633Z,96.92
2019-03-10T22:59:11.619Z,96.15
2019-03-10T23:00:11.609Z,95.73
2019-03-10T23:01:11.590Z,95.21
2019-03-10T23:02:11.583Z,95.32
2019-03-10T23:03:11.569Z,95.42
2019-03-10T23:04:11.777Z,95.01
2019-03-10T23:05:11.598Z,95.15
2019-03-10T23:06:11.544Z,94.01
2019-03-10T23:07:11.556Z,93.91
2019-03-10T23:08:11.778Z,94.95
2019-03-10T23:09:11.510Z,94.95
2019-03-10T23:10:11.515Z,95.01
2019-03-10T23:11:11.488Z,94.49
2019-03-10T23:12:11.526Z,94.38
2019-03-10T23:13:11.457Z,93.80
2019-03-10T23:14:11.476Z,95.01
2019-03-10T23:15:11.580Z,95.15
2019-03-10T23:16:11.418Z,95.21
2019-03-10T23:17:11.404Z,94.70
2019-03-10T23:18:11.432Z,95.78
2019-03-10T23:19:11.399Z,94.84
2019-03-10T23:20:11.388Z,94.90
2019-03-10T23:21:11.402Z,94.59
2019-03-10T23:22:11.361Z,94.38
2019-03-10T23:23:11.341Z,93.60
2019-03-10T23:24:11.326Z,95.21
2019-03-10T23:25:11.330Z,94.49
2019-03-10T23:26:11.487Z,93.66
2019-03-10T23:27:11.298Z,94.53
2019-03-10T23:28:11.294Z,94.28
2019-03-10T23:29:11.271Z,94.18
2019-03-10T23:30:11.263Z,93.76
2019-03-10T23:31:11.266Z,94.07
2019-03-10T23:32:11.256Z,94.32
2019-03-10T23:33:11.225Z,94.07
2019-03-10T23:34:11.307Z,94.90
2019-03-10T23:35:11.224Z,94.80
2019-03-10T23:36:11.206Z,95.42
2019-03-10T23:37:11.186Z,94.18
2019-03-10T23:38:11.208Z,94.18
2019-03-10T23:39:11.156Z,94.28
2019-03-10T23:40:11.143Z,93.87
2019-03-10T23:41:11.162Z,94.18
2019-03-10T23:42:11.127Z,93.35
2019-03-10T23:43:11.125Z,93.35
2019-03-10T23:44:11.133Z,93.97
2019-03-10T23:45:11.139Z,94.18
2019-03-10T23:46:11.087Z,93.14
2019-03-10T23:47:11.072Z,93.24
2019-03-10T23:48:11.059Z,93.87
2019-03-10T23:49:11.044Z,93.35
2019-03-10T23:50:11.045Z,92.61
2019-03-10T23:51:11.029Z,93.87
2019-03-10T23:52:11.016Z,94.07
2019-03-10T23:53:11.242Z,93.55
2019-03-10T23:54:10.999Z,93.97
2019-03-10T23:55:10.997Z,93.55
2019-03-10T23:56:10.965Z,94.01
2019-03-10T23:57:11.062Z,93.24
2019-03-10T23:58:10.944Z,93.87
2019-03-10T23:59:10.934Z,93.51
